Home > Products > Valid Products > TAF

000
FTUS42 KCAE 251300 AAA
TAFCAE
TAF AMD
KCAE 251306Z 2513/2612 VRB04KT P6SM SKC
     FM251600 30005KT P6SM SKC
     FM260000 VRB03KT P6SM SKC=



000
FTUS42 KCAE 251100 RRA
TAFCUB
TAF
KCUB 251141Z 2512/2612 VRB03KT P6SM SKC
     FM251600 30004KT P6SM SKC
     FM260000 00000KT P6SM SKC=



000
FTUS42 KCAE 251100 RRA
TAFDNL
TAF
KDNL 251141Z 2512/2612 VRB03KT P6SM SKC
     FM251600 30004KT P6SM SKC
     FM260000 VRB04KT P6SM SKC=



000
FTUS42 KCAE 251100 RRA
TAFCAE
TAF
KCAE 251141Z 2512/2612 00000KT 1SM BR SCT002
     FM251300 VRB03KT 6SM BR FEW002
     FM251400 VRB04KT P6SM SKC
     FM251600 30005KT P6SM SKC
     FM260000 VRB03KT P6SM SKC=



000
FTUS42 KCAE 251100 RRA
TAFOGB
TAF
KOGB 251141Z 2512/2612 00000KT P6SM SKC
     FM251600 30005KT P6SM SKC
     FM260000 VRB03KT P6SM SKC=



000
FTUS42 KCAE 251100 RRA
TAFAGS
TAF
KAGS 251141Z 2512/2612 00000KT P6SM SKC
     FM251600 30005KT P6SM SKC
     FM260000 VRB02KT P6SM SKC=



000
FTUS42 KCAE 251100 RRA
TAFCUB
TAF
KCUB 251141Z 2512/2612 VRB03KT P6SM SKC
     FM251600 30004KT P6SM SKC
     FM260000 00000KT P6SM SKC=



000
FTUS42 KCAE 251100 RRA
TAFDNL
TAF
KDNL 251141Z 2512/2612 VRB03KT P6SM SKC
     FM251600 30004KT P6SM SKC
     FM260000 VRB04KT P6SM SKC=



000
FTUS42 KCAE 251100 RRA
TAFCAE
TAF
KCAE 251141Z 2512/2612 00000KT 1SM BR SCT002
     FM251300 VRB03KT 6SM BR FEW002
     FM251400 VRB04KT P6SM SKC
     FM251600 30005KT P6SM SKC
     FM260000 VRB03KT P6SM SKC=



000
FTUS42 KCAE 251100 RRA
TAFOGB
TAF
KOGB 251141Z 2512/2612 00000KT P6SM SKC
     FM251600 30005KT P6SM SKC
     FM260000 VRB03KT P6SM SKC=



000
FTUS42 KCAE 251100 RRA
TAFAGS
TAF
KAGS 251141Z 2512/2612 00000KT P6SM SKC
     FM251600 30005KT P6SM SKC
     FM260000 VRB02KT P6SM SKC=



000
FTUS42 KCAE 251100 AAD
TAFOGB
TAF AMD
KOGB 251111Z 2511/2606 00000KT P6SM SKC
     FM251600 28005KT P6SM SKC
     FM260000 VRB03KT P6SM SKC=



000
FTUS42 KCAE 251100 AAD
TAFOGB
TAF AMD
KOGB 251111Z 2511/2606 00000KT P6SM SKC
     FM251600 28005KT P6SM SKC
     FM260000 VRB03KT P6SM SKC=



000
FTUS42 KCAE 251100 AAC
TAFCAE
TAF AMD
KCAE 251110Z 2511/2606 00000KT 1SM BR SCT002
      TEMPO 2511/2512 6SM BR
     FM251300 VRB03KT P6SM SKC
     FM251600 28005KT P6SM SKC
     FM260000 VRB03KT P6SM SKC=



000
FTUS42 KCAE 251100 AAC
TAFCAE
TAF AMD
KCAE 251110Z 2511/2606 00000KT 1SM BR SCT002
      TEMPO 2511/2512 6SM BR
     FM251300 VRB03KT P6SM SKC
     FM251600 28005KT P6SM SKC
     FM260000 VRB03KT P6SM SKC=



000
FTUS42 KCAE 251000 AAB
TAFCAE
TAF AMD
KCAE 251048Z 2511/2606 00000KT 6SM BR SKC
      TEMPO 2511/2512 2SM BR
     FM251300 VRB03KT P6SM SKC
     FM251600 28005KT P6SM SKC
     FM260000 VRB03KT P6SM SKC=



000
FTUS42 KCAE 251000 AAB
TAFCAE
TAF AMD
KCAE 251048Z 2511/2606 00000KT 6SM BR SKC
      TEMPO 2511/2512 2SM BR
     FM251300 VRB03KT P6SM SKC
     FM251600 28005KT P6SM SKC
     FM260000 VRB03KT P6SM SKC=



000
FTUS42 KCAE 251000 AAB
TAFAGS
TAF AMD
KAGS 251012Z 2510/2606 00000KT P6SM SKC
      TEMPO 2510/2512 2SM BR
     FM251600 28005KT P6SM SKC
     FM260000 VRB03KT P6SM SKC=



000
FTUS42 KCAE 251000 AAC
TAFOGB
TAF AMD
KOGB 251012Z 2510/2606 00000KT P6SM SKC
      TEMPO 2510/2512 4SM BR
     FM251600 28005KT P6SM SKC
     FM260000 VRB03KT P6SM SKC=



000
FTUS42 KCAE 250800 AAB
TAFOGB
TAF AMD
KOGB 250839Z 2509/2606 00000KT 6SM BR SKC
      TEMPO 2509/2512 3SM BR
     FM251600 28005KT P6SM SKC
     FM260000 VRB03KT P6SM SKC=



000
FTUS42 KCAE 250800 AAA
TAFAGS
TAF AMD
KAGS 250839Z 2509/2606 00000KT P6SM SKC
      TEMPO 2509/2512 3SM BR
     FM251600 28005KT P6SM SKC
     FM260000 VRB03KT P6SM SKC=



000
FTUS42 KCAE 250800 AAA
TAFDNL
TAF AMD
KDNL 250839Z 2509/2606 VRB03KT P6SM SKC
     FM251600 28005KT P6SM SKC
     FM260000 VRB03KT P6SM SKC=



000
FTUS42 KCAE 250800 AAA
TAFCAE
TAF AMD
KCAE 250839Z 2509/2606 VRB03KT P6SM SKC
     FM251600 28005KT P6SM SKC
     FM260000 VRB03KT P6SM SKC=



000
FTUS42 KCAE 250800 AAA
TAFCUB
TAF AMD
KCUB 250839Z 2509/2606 VRB03KT P6SM SKC
     FM251600 28005KT P6SM SKC
     FM260000 VRB03KT P6SM SKC=



000
FTUS42 KCAE 250600 AAA
TAFOGB
TAF AMD
KOGB 250605Z 2506/2606 00000KT 6SM BR SKC
      TEMPO 2509/2512 3SM BR
     FM251600 28005KT P6SM SKC
     FM260000 VRB03KT P6SM SKC=



000
FTUS42 KCAE 250500
TAFOGB
TAF
KOGB 250520Z 2506/2606 VRB03KT P6SM SKC
     FM251600 28005KT P6SM SKC
     FM260000 VRB03KT P6SM SKC=



000
FTUS42 KCAE 250500
TAFCUB
TAF
KCUB 250520Z 2506/2606 VRB03KT P6SM SKC
     FM251600 28005KT P6SM SKC
     FM260000 VRB03KT P6SM SKC=



000
FTUS42 KCAE 250500
TAFDNL
TAF
KDNL 250520Z 2506/2606 VRB03KT P6SM SKC
     FM251600 28005KT P6SM SKC
     FM260000 VRB03KT P6SM SKC=



000
FTUS42 KCAE 250500
TAFCAE
TAF
KCAE 250520Z 2506/2606 VRB03KT P6SM SKC
     FM251600 28005KT P6SM SKC
     FM260000 VRB03KT P6SM SKC=



000
FTUS42 KCAE 250500
TAFAGS
TAF
KAGS 250520Z 2506/2606 00000KT P6SM SKC
      TEMPO 2509/2512 3SM BR
     FM251600 28005KT P6SM SKC
     FM260000 VRB03KT P6SM SKC=



000
FTUS42 KCAE 250200 AAA
TAFCAE
TAF AMD
KCAE 250237Z 2503/2524 VRB04KT P6SM SKC=



000
FTUS42 KCAE 250200 AAA
TAFOGB
TAF AMD
KOGB 250237Z 2503/2524 VRB04KT P6SM SKC=



000
FTUS42 KCAE 250200 AAA
TAFCUB
TAF AMD
KCUB 250237Z 2503/2524 VRB04KT P6SM SKC=



000
FTUS42 KCAE 250200 AAA
TAFDNL
TAF AMD
KDNL 250237Z 2503/2524 VRB04KT P6SM SKC=



000
FTUS42 KCAE 250200 AAA
TAFAGS
TAF AMD
KAGS 250237Z 2503/2524 00000KT P6SM SKC
      TEMPO 2509/2512 3SM BR
     FM251500 VRB05KT P6SM SKC=



000
FTUS42 KCAE 242300
TAFAGS
TAF
KAGS 242333Z 2500/2524 00000KT P6SM SKC
     FM251500 VRB05KT P6SM SKC=



000
FTUS42 KCAE 242300
TAFDNL
TAF
KDNL 242333Z 2500/2524 VRB05KT P6SM SKC=



000
FTUS42 KCAE 242300
TAFCAE
TAF
KCAE 242333Z 2500/2524 00000KT P6SM BKN150
     FM251500 VRB05KT P6SM SKC=



000
FTUS42 KCAE 242300
TAFOGB
TAF
KOGB 242333Z 2500/2524 VRB03KT P6SM BKN150
     FM251500 VRB03KT P6SM SKC=



000
FTUS42 KCAE 242300
TAFCUB
TAF
KCUB 242333Z 2500/2524 00000KT P6SM BKN150
     FM251500 VRB05KT P6SM SKC=



000
FTUS42 KCAE 242000 AAA
TAFCUB
TAF AMD
KCUB 242039Z 2421/2518 VRB04KT P6SM BKN200=



000
FTUS42 KCAE 242000 AAA
TAFCAE
TAF AMD
KCAE 242039Z 2421/2518 VRB05KT P6SM BKN200=



000
FTUS42 KCAE 242000 AAA
TAFAGS
TAF AMD
KAGS 242039Z 2421/2518 VRB04KT P6SM BKN200=



000
FTUS42 KCAE 242000 AAA
TAFOGB
TAF AMD
KOGB 242039Z 2421/2518 VRB04KT P6SM SCT200=



000
FTUS42 KCAE 242000 AAA
TAFDNL
TAF AMD
KDNL 242039Z 2421/2518 VRB04KT P6SM BKN200=



000
FTUS42 KCAE 241700
TAFDNL
TAF
KDNL 241720Z 2418/2518 VRB04KT P6SM SCT200=



000
FTUS42 KCAE 241700
TAFCUB
TAF
KCUB 241720Z 2418/2518 VRB04KT P6SM SCT200=



000
FTUS42 KCAE 241700
TAFAGS
TAF
KAGS 241720Z 2418/2518 VRB04KT P6SM SCT200=



000
FTUS42 KCAE 241700
TAFOGB
TAF
KOGB 241720Z 2418/2518 VRB04KT P6SM SCT200=



000
FTUS42 KCAE 241700
TAFCAE
TAF
KCAE 241720Z 2418/2518 VRB04KT P6SM SCT200=



000
FTUS42 KCAE 241600 AAA
TAFOGB
TAF AMD
KOGB 241622Z 2416/2512 VRB04KT P6SM SCT200=



000
FTUS42 KCAE 241600 AAA
TAFDNL
TAF AMD
KDNL 241622Z 2416/2512 VRB04KT P6SM SCT200=



000
FTUS42 KCAE 241600 AAA
TAFCUB
TAF AMD
KCUB 241621Z 2416/2512 VRB04KT P6SM SCT200=



000
FTUS42 KCAE 241600 AAA
TAFCAE
TAF AMD
KCAE 241620Z 2416/2512 VRB04KT P6SM SCT200=



000
FTUS42 KCAE 241300 AAA
TAFAGS
TAF AMD
KAGS 241307Z 2413/2512 VRB04KT P6SM SCT200=



000
FTUS42 KCAE 241100
TAFAGS
TAF
KAGS 241122Z 2412/2512 00000KT 6SM BR SCT200
      TEMPO 2412/2413 3SM BR
     FM241500 VRB04KT P6SM SCT200=



000
FTUS42 KCAE 241100
TAFDNL
TAF
KDNL 241122Z 2412/2512 00000KT P6SM SCT200
     FM241500 VRB04KT P6SM SCT200=



000
FTUS42 KCAE 241100
TAFOGB
TAF
KOGB 241122Z 2412/2512 00000KT P6SM SCT200
     FM241500 VRB04KT P6SM SCT200=



000
FTUS42 KCAE 241100
TAFCUB
TAF
KCUB 241122Z 2412/2512 00000KT P6SM SCT200
     FM241500 VRB04KT P6SM SCT200=



000
FTUS42 KCAE 241100
TAFCAE
TAF
KCAE 241122Z 2412/2512 00000KT P6SM SCT200
     FM241500 VRB04KT P6SM BKN200=



000
FTUS42 KCAE 240900 AAC
TAFAGS
TAF AMD
KAGS 240950Z 2410/2506 00000KT 6SM BR SCT200
      TEMPO 2410/2412 3SM BR
     FM241500 VRB04KT P6SM SCT200=



000
FTUS42 KCAE 240900 AAC
TAFAGS
TAF AMD
KAGS 240950Z 2410/2506 00000KT 6SM BR SCT200
      TEMPO 2410/2412 3SM BR
     FM241500 VRB04KT P6SM SCT200=



000
FTUS42 KCAE 240900 AAB
TAFAGS
TAF AMD
KAGS 240943Z 2410/2506 00000KT 5SM BR SCT200
      TEMPO 2410/2412 2SM BR
     FM241500 VRB04KT P6SM SCT200=



000
FTUS42 KCAE 240800 AAA
TAFCUB
TAF AMD
KCUB 240833Z 2409/2506 00000KT P6SM SCT200
     FM241500 VRB04KT P6SM SCT200=



000
FTUS42 KCAE 240800 AAA
TAFDNL
TAF AMD
KDNL 240833Z 2409/2506 00000KT P6SM SCT200
     FM241500 VRB04KT P6SM SCT200=



000
FTUS42 KCAE 240800 AAA
TAFAGS
TAF AMD
KAGS 240833Z 2409/2506 00000KT P6SM SCT200
     FM241500 VRB04KT P6SM SCT200=



000
FTUS42 KCAE 240800 AAA
TAFCAE
TAF AMD
KCAE 240833Z 2409/2506 00000KT P6SM SCT200
     FM241500 VRB04KT P6SM BKN200=



000
FTUS42 KCAE 240800 AAA
TAFOGB
TAF AMD
KOGB 240833Z 2409/2506 00000KT P6SM SCT200
     FM241500 VRB04KT P6SM SCT200=



000
FTUS42 KCAE 240500
TAFOGB
TAF
KOGB 240539Z 2406/2506 00000KT P6SM SCT200
     FM241500 VRB04KT P6SM SCT200=



000
FTUS42 KCAE 240500
TAFDNL
TAF
KDNL 240539Z 2406/2506 00000KT P6SM SCT200
     FM241500 VRB04KT P6SM SCT200=



000
FTUS42 KCAE 240500
TAFCUB
TAF
KCUB 240539Z 2406/2506 00000KT P6SM SCT200
     FM241500 VRB04KT P6SM SCT200=



000
FTUS42 KCAE 240500
TAFAGS
TAF
KAGS 240539Z 2406/2506 00000KT P6SM SCT200
     FM241500 VRB04KT P6SM SCT200=



000
FTUS42 KCAE 240500
TAFCAE
TAF
KCAE 240539Z 2406/2506 00000KT P6SM SCT200
     FM241500 VRB04KT P6SM BKN200=



000
FTUS42 KCAE 240200 AAA
TAFOGB
TAF AMD
KOGB 240228Z 2402/2424 00000KT P6SM SCT200
     FM241500 VRB04KT P6SM SCT200=



000
FTUS42 KCAE 240200 AAA
TAFAGS
TAF AMD
KAGS 240228Z 2402/2424 00000KT P6SM SCT200
     FM241500 VRB04KT P6SM SCT200=



000
FTUS42 KCAE 240200 AAA
TAFCUB
TAF AMD
KCUB 240228Z 2402/2424 00000KT P6SM SCT200
     FM241500 VRB04KT P6SM SCT200=



000
FTUS42 KCAE 240200 AAA
TAFCAE
TAF AMD
KCAE 240228Z 2402/2424 00000KT P6SM SCT200
     FM241500 VRB04KT P6SM BKN200=



000
FTUS42 KCAE 240200 AAA
TAFDNL
TAF AMD
KDNL 240228Z 2402/2424 00000KT P6SM SCT200
     FM241500 VRB04KT P6SM SCT200=



000
FTUS42 KCAE 240200 AAA
TAFDNL
TAF AMD
KDNL 240228Z 2402/2424 00000KT P6SM SCT200
     FM241500 VRB04KT P6SM SCT200=



000
FTUS42 KCAE 240200 AAA
TAFOGB
TAF AMD
KOGB 240228Z 2402/2424 00000KT P6SM SCT200
     FM241500 VRB04KT P6SM SCT200=



000
FTUS42 KCAE 240200 AAA
TAFCUB
TAF AMD
KCUB 240228Z 2402/2424 00000KT P6SM SCT200
     FM241500 VRB04KT P6SM SCT200=



000
FTUS42 KCAE 240200 AAA
TAFCAE
TAF AMD
KCAE 240228Z 2402/2424 00000KT P6SM SCT200
     FM241500 VRB04KT P6SM BKN200=



000
FTUS42 KCAE 240200 AAA
TAFAGS
TAF AMD
KAGS 240228Z 2402/2424 00000KT P6SM SCT200
     FM241500 VRB04KT P6SM SCT200=



000
FTUS42 KCAE 232300
TAFCUB
TAF
KCUB 232327Z 2400/2424 00000KT P6SM SCT200
     FM241500 VRB04KT P6SM SCT200=



000
FTUS42 KCAE 232300
TAFCAE
TAF
KCAE 232327Z 2400/2424 00000KT P6SM SCT200
     FM241500 VRB04KT P6SM BKN200=



000
FTUS42 KCAE 232300
TAFOGB
TAF
KOGB 232327Z 2400/2424 00000KT P6SM SCT200
     FM241500 VRB04KT P6SM SCT200=



000
FTUS42 KCAE 232300
TAFDNL
TAF
KDNL 232327Z 2400/2424 00000KT P6SM SCT200
     FM241500 VRB04KT P6SM SCT200=



000
FTUS42 KCAE 232300
TAFAGS
TAF
KAGS 232327Z 2400/2424 00000KT P6SM SCT200
     FM241500 VRB04KT P6SM SCT200=



000
FTUS42 KCAE 232000 AAA
TAFOGB
TAF AMD
KOGB 232013Z 2320/2418 30007KT P6SM SKC
     FM240000 00000KT P6SM SCT250
     FM241500 VRB04KT P6SM BKN250=



000
FTUS42 KCAE 232000 AAA
TAFCAE
TAF AMD
KCAE 232013Z 2320/2418 30006KT P6SM SKC
     FM240000 00000KT P6SM SCT250
     FM241500 VRB04KT P6SM BKN250=



000
FTUS42 KCAE 232000 AAA
TAFDNL
TAF AMD
KDNL 232013Z 2320/2418 33006KT P6SM SKC
     FM240000 00000KT P6SM SCT250
     FM241500 VRB04KT P6SM BKN250=



000
FTUS42 KCAE 232000 AAA
TAFCUB
TAF AMD
KCUB 232013Z 2320/2418 30006KT P6SM SKC
     FM240000 00000KT P6SM SCT250
     FM241500 VRB04KT P6SM BKN250=



000
FTUS42 KCAE 232000 AAA
TAFAGS
TAF AMD
KAGS 232013Z 2320/2418 33006KT P6SM SKC
     FM240000 00000KT P6SM SCT250
     FM241500 VRB04KT P6SM BKN250=



000
FTUS42 KCAE 231700
TAFCUB
TAF
KCUB 231737Z 2318/2418 30005KT P6SM SKC
     FM240000 00000KT P6SM SCT250
     FM241500 VRB04KT P6SM BKN250=



000
FTUS42 KCAE 231700
TAFOGB
TAF
KOGB 231737Z 2318/2418 34007KT P6SM SKC
     FM240000 00000KT P6SM SCT250
     FM241500 VRB04KT P6SM BKN250=



000
FTUS42 KCAE 231700
TAFAGS
TAF
KAGS 231737Z 2318/2418 31006KT P6SM SKC
     FM240000 00000KT P6SM SCT250
     FM241500 VRB04KT P6SM BKN250=



000
FTUS42 KCAE 231700
TAFDNL
TAF
KDNL 231737Z 2318/2418 32006KT P6SM SKC
     FM240000 00000KT P6SM SCT250
     FM241500 VRB04KT P6SM BKN250=



000
FTUS42 KCAE 231700
TAFCAE
TAF
KCAE 231737Z 2318/2418 30006KT P6SM SKC
     FM240000 00000KT P6SM SCT250
     FM241500 VRB04KT P6SM BKN250=



000
FTUS42 KCAE 231500 AAA
TAFAGS
TAF AMD
KAGS 231518Z 2315/2412 31006KT P6SM SKC
     FM240000 00000KT P6SM SCT250=



000
FTUS42 KCAE 231500 AAA
TAFDNL
TAF AMD
KDNL 231518Z 2315/2412 32006KT P6SM SKC
     FM240000 00000KT P6SM SCT250=



000
FTUS42 KCAE 231500 AAA
TAFOGB
TAF AMD
KOGB 231518Z 2315/2412 34007KT P6SM SKC
     FM240000 00000KT P6SM SCT250=



000
FTUS42 KCAE 231500 AAA
TAFCAE
TAF AMD
KCAE 231518Z 2315/2412 30006KT P6SM SKC
     FM240000 00000KT P6SM SCT250=



000
FTUS42 KCAE 231500 AAA
TAFCUB
TAF AMD
KCUB 231518Z 2315/2412 30005KT P6SM SKC
     FM240000 00000KT P6SM SCT250=



000
FTUS42 KCAE 231100
TAFDNL
TAF
KDNL 231120Z 2312/2412 34004KT P6SM SKC
     FM231800 31006KT P6SM SKC=



000
FTUS42 KCAE 231100
TAFCAE
TAF
KCAE 231120Z 2312/2412 VRB03KT P6SM SKC WS020/04035KT
     FM231300 33005KT P6SM SKC
     FM231700 30006KT P6SM SKC=



000
FTUS42 KCAE 231100
TAFAGS
TAF
KAGS 231120Z 2312/2412 34004KT P6SM SKC
     FM231800 31006KT P6SM SKC=



000
FTUS42 KCAE 231100
TAFCUB
TAF
KCUB 231120Z 2312/2412 33003KT P6SM SKC
     FM231700 30006KT P6SM SKC=



000
FTUS42 KCAE 231100
TAFOGB
TAF
KOGB 231120Z 2312/2412 34004KT P6SM SKC
     FM231700 29006KT P6SM SKC=



000
FTUS42 KCAE 230800 AAA
TAFDNL
TAF AMD
KDNL 230832Z 2309/2406 34004KT P6SM SKC
     FM231800 31006KT P6SM SKC=



000
FTUS42 KCAE 230800 AAA
TAFCAE
TAF AMD
KCAE 230832Z 2309/2406 VRB03KT P6SM SKC WS020/04035KT
     FM231300 33005KT P6SM SKC
     FM231700 30006KT P6SM SKC=



000
FTUS42 KCAE 230800 AAA
TAFCUB
TAF AMD
KCUB 230832Z 2309/2406 33003KT P6SM SKC
     FM231700 30006KT P6SM SKC=



000
FTUS42 KCAE 230800 AAA
TAFAGS
TAF AMD
KAGS 230832Z 2309/2406 34004KT P6SM SKC
     FM231800 31006KT P6SM SKC=



000
FTUS42 KCAE 230800 AAA
TAFOGB
TAF AMD
KOGB 230832Z 2309/2406 34004KT P6SM SKC
     FM231700 29006KT P6SM SKC=



000
FTUS42 KCAE 230500
TAFCAE
TAF
KCAE 230520Z 2306/2406 35003KT P6SM SKC WS020/03040KT
     FM231700 30006KT P6SM SKC=



000
FTUS42 KCAE 230500
TAFDNL
TAF
KDNL 230520Z 2306/2406 35003KT P6SM SKC
     FM231800 31006KT P6SM SKC=



000
FTUS42 KCAE 230500
TAFAGS
TAF
KAGS 230520Z 2306/2406 35003KT P6SM SKC
     FM231800 31006KT P6SM SKC=



000
FTUS42 KCAE 230500
TAFOGB
TAF
KOGB 230520Z 2306/2406 35003KT P6SM SKC
     FM231700 29006KT P6SM SKC=



000
FTUS42 KCAE 230500
TAFCUB
TAF
KCUB 230520Z 2306/2406 35003KT P6SM SKC
     FM231700 30006KT P6SM SKC=



000
FTUS42 KCAE 230400 AAB
TAFCAE
TAF AMD
KCAE 230414Z 2304/2324 35003KT P6SM SKC WS020/03040KT
     FM231700 30006KT P6SM SKC=



000
FTUS42 KCAE 230400 AAB
TAFCAE
TAF AMD
KCAE 230414Z 2304/2324 35003KT P6SM SKC WS020/03040KT
     FM231700 30006KT P6SM SKC=



000
FTUS42 KCAE 230200 AAA
TAFCAE
TAF AMD
KCAE 230225Z 2302/2324 35003KT P6SM SKC
     FM231700 30006KT P6SM SKC=



000
FTUS42 KCAE 230200 AAA
TAFCUB
TAF AMD
KCUB 230225Z 2302/2324 35003KT P6SM SKC
     FM231700 30006KT P6SM SKC=



000
FTUS42 KCAE 230200 AAA
TAFOGB
TAF AMD
KOGB 230225Z 2302/2324 35003KT P6SM SKC
     FM231700 30006KT P6SM SKC=



000
FTUS42 KCAE 230200 AAA
TAFDNL
TAF AMD
KDNL 230225Z 2302/2324 35003KT P6SM SKC
     FM231800 31006KT P6SM SKC=



000
FTUS42 KCAE 230200 AAA
TAFAGS
TAF AMD
KAGS 230225Z 2302/2324 35003KT P6SM SKC
     FM231800 31006KT P6SM SKC=



000
FTUS42 KCAE 222300
TAFCUB
TAF
KCUB 222333Z 2300/2324 35003KT P6SM SKC
     FM231700 30006KT P6SM SKC=



000
FTUS42 KCAE 222300
TAFDNL
TAF
KDNL 222333Z 2300/2324 35003KT P6SM SKC
     FM231800 31006KT P6SM SKC=



000
FTUS42 KCAE 222300
TAFAGS
TAF
KAGS 222333Z 2300/2324 35003KT P6SM SKC
     FM231800 31006KT P6SM SKC=



000
FTUS42 KCAE 222300
TAFOGB
TAF
KOGB 222333Z 2300/2324 35003KT P6SM SKC
     FM231700 30006KT P6SM SKC=



000
FTUS42 KCAE 222300
TAFCAE
TAF
KCAE 222333Z 2300/2324 35003KT P6SM SKC
     FM231700 30006KT P6SM SKC=



000
FTUS42 KCAE 222000 AAA
TAFCUB
TAF AMD
KCUB 222034Z 2221/2318 36008KT P6SM SKC
     FM222300 35003KT P6SM SKC=



000
FTUS42 KCAE 222000 AAA
TAFDNL
TAF AMD
KDNL 222034Z 2221/2318 36008KT P6SM SKC
     FM222300 35003KT P6SM SKC=



000
FTUS42 KCAE 222000 AAA
TAFOGB
TAF AMD
KOGB 222034Z 2221/2318 36008KT P6SM SKC
     FM222300 35003KT P6SM SKC=



000
FTUS42 KCAE 222000 AAA
TAFAGS
TAF AMD
KAGS 222034Z 2221/2318 01008KT P6SM SKC
     FM222300 35003KT P6SM SKC=



000
FTUS42 KCAE 222000 AAA
TAFCAE
TAF AMD
KCAE 222034Z 2221/2318 36008KT P6SM SKC
     FM222300 35003KT P6SM SKC=



000
FTUS42 KCAE 222000 AAA
TAFAGS
TAF AMD
KAGS 222034Z 2221/2318 01008KT P6SM SKC
     FM222300 35003KT P6SM SKC=



000
FTUS42 KCAE 222000 AAA
TAFOGB
TAF AMD
KOGB 222034Z 2221/2318 36008KT P6SM SKC
     FM222300 35003KT P6SM SKC=



000
FTUS42 KCAE 222000 AAA
TAFCUB
TAF AMD
KCUB 222034Z 2221/2318 36008KT P6SM SKC
     FM222300 35003KT P6SM SKC=



000
FTUS42 KCAE 222000 AAA
TAFDNL
TAF AMD
KDNL 222034Z 2221/2318 36008KT P6SM SKC
     FM222300 35003KT P6SM SKC=



000
FTUS42 KCAE 222000 AAA
TAFCAE
TAF AMD
KCAE 222034Z 2221/2318 36008KT P6SM SKC
     FM222300 35003KT P6SM SKC=



000
FTUS42 KCAE 221700
TAFCAE
TAF
KCAE 221726Z 2218/2318 36010G16KT P6SM SKC
     FM222300 35003KT P6SM SKC=



000
FTUS42 KCAE 221700
TAFDNL
TAF
KDNL 221726Z 2218/2318 01008KT P6SM SKC
     FM222300 35003KT P6SM SKC=



000
FTUS42 KCAE 221700
TAFOGB
TAF
KOGB 221726Z 2218/2318 01010G16KT P6SM SKC
     FM222300 35003KT P6SM SKC=



000
FTUS42 KCAE 221700
TAFCUB
TAF
KCUB 221726Z 2218/2318 36008G16KT P6SM SKC
     FM222300 35003KT P6SM SKC=



000
FTUS42 KCAE 221700
TAFAGS
TAF
KAGS 221726Z 2218/2318 01008KT P6SM SKC
     FM222300 35003KT P6SM SKC=



000
FTUS42 KCAE 221700
TAFCUB
TAF
KCUB 221726Z 2218/2318 36008G16KT P6SM SKC
     FM222300 35003KT P6SM SKC=



000
FTUS42 KCAE 221700
TAFDNL
TAF
KDNL 221726Z 2218/2318 01008KT P6SM SKC
     FM222300 35003KT P6SM SKC=



000
FTUS42 KCAE 221700
TAFOGB
TAF
KOGB 221726Z 2218/2318 01010G16KT P6SM SKC
     FM222300 35003KT P6SM SKC=



000
FTUS42 KCAE 221700
TAFAGS
TAF
KAGS 221726Z 2218/2318 01008KT P6SM SKC
     FM222300 35003KT P6SM SKC=



000
FTUS42 KCAE 221700
TAFCAE
TAF
KCAE 221726Z 2218/2318 36010G16KT P6SM SKC
     FM222300 35003KT P6SM SKC=



000
FTUS42 KCAE 221400 AAA
TAFAGS
TAF AMD
KAGS 221447Z 2215/2312 36008G18KT P6SM SKC
     FM222300 35003KT P6SM SKC=



000
FTUS42 KCAE 221400 AAA
TAFDNL
TAF AMD
KDNL 221447Z 2215/2312 36008G18KT P6SM SKC
     FM222300 35003KT P6SM SKC=



000
FTUS42 KCAE 221400 AAA
TAFOGB
TAF AMD
KOGB 221447Z 2215/2312 35010G18KT P6SM SKC
     FM222300 35003KT P6SM SKC=



000
FTUS42 KCAE 221400 AAA
TAFCUB
TAF AMD
KCUB 221447Z 2215/2312 35008G18KT P6SM SKC
     FM222300 35003KT P6SM SKC=



000
FTUS42 KCAE 221400 AAA
TAFCAE
TAF AMD
KCAE 221447Z 2215/2312 35010G18KT P6SM SKC
     FM222300 35003KT P6SM SKC=



    US Dept of Commerce
    National Oceanic and Atmospheric Administration
    National Weather Service
    1325 East West Highway
    Silver Spring, MD 20910
    Page Author: NWS Internet Services Team
Disclaimer
Information Quality
Credits
Glossary
Privacy Policy
Freedom of Information Act (FOIA)
About Us
Career Opportunities